sensor_id;sensor_type;location;lat;lon;timestamp;P1;durP1;ratioP1;P2;durP2;ratioP2
35909;SDS011;22004;49.120;-0.200;2024-01-10T19:46:26;37.13;;;21.70;;
35909;SDS011;22004;49.120;-0.200;2024-01-10T19:48:52;38.47;;;22.27;;
35909;SDS011;22004;49.120;-0.200;2024-01-10T19:51:17;34.67;;;21.73;;
35909;SDS011;22004;49.120;-0.200;2024-01-10T19:53:43;37.55;;;22.30;;
35909;SDS011;22004;49.120;-0.200;2024-01-10T19:56:13;43.13;;;23.00;;
35909;SDS011;22004;49.120;-0.200;2024-01-10T19:58:40;39.08;;;21.60;;
35909;SDS011;22004;49.120;-0.200;2024-01-10T20:01:05;35.08;;;21.92;;
35909;SDS011;22004;49.120;-0.200;2024-01-10T20:03:30;36.58;;;21.92;;
35909;SDS011;22004;49.120;-0.200;2024-01-10T20:05:56;36.97;;;22.02;;
35909;SDS011;22004;49.120;-0.200;2024-01-10T20:08:21;35.72;;;21.27;;
35909;SDS011;22004;49.120;-0.200;2024-01-10T20:10:47;35.05;;;20.77;;
35909;SDS011;22004;49.120;-0.200;2024-01-10T20:13:12;39.75;;;21.50;;
35909;SDS011;22004;49.120;-0.200;2024-01-10T20:15:37;38.55;;;21.50;;
35909;SDS011;22004;49.120;-0.200;2024-01-10T20:18:03;38.47;;;21.65;;
35909;SDS011;22004;49.120;-0.200;2024-01-10T20:20:28;39.55;;;22.73;;
35909;SDS011;22004;49.120;-0.200;2024-01-10T20:22:54;37.90;;;22.63;;
35909;SDS011;22004;49.120;-0.200;2024-01-10T20:25:20;34.53;;;21.42;;
35909;SDS011;22004;49.120;-0.200;2024-01-10T20:27:49;41.92;;;23.98;;
35909;SDS011;22004;49.120;-0.200;2024-01-10T20:30:18;37.83;;;22.48;;
35909;SDS011;22004;49.120;-0.200;2024-01-10T20:32:44;38.30;;;22.77;;
35909;SDS011;22004;49.120;-0.200;2024-01-10T20:35:09;38.15;;;22.48;;
35909;SDS011;22004;49.120;-0.200;2024-01-10T20:37:34;41.05;;;23.23;;
35909;SDS011;22004;49.120;-0.200;2024-01-10T20:40:00;38.08;;;22.35;;
35909;SDS011;22004;49.120;-0.200;2024-01-10T20:42:28;38.00;;;23.52;;
35909;SDS011;22004;49.120;-0.200;2024-01-10T20:44:55;36.63;;;23.02;;
35909;SDS011;22004;49.120;-0.200;2024-01-10T20:47:20;42.08;;;23.63;;
35909;SDS011;22004;49.120;-0.200;2024-01-10T20:49:52;39.97;;;24.33;;
35909;SDS011;22004;49.120;-0.200;2024-01-10T20:52:24;39.50;;;23.20;;
35909;SDS011;22004;49.120;-0.200;2024-01-10T20:54:50;42.33;;;23.55;;
35909;SDS011;22004;49.120;-0.200;2024-01-10T20:57:19;40.17;;;23.00;;
35909;SDS011;22004;49.120;-0.200;2024-01-10T20:59:48;40.75;;;24.30;;
35909;SDS011;22004;49.120;-0.200;2024-01-10T21:02:15;40.05;;;23.63;;
35909;SDS011;22004;49.120;-0.200;2024-01-10T21:04:41;37.30;;;22.27;;
35909;SDS011;22004;49.120;-0.200;2024-01-10T21:07:06;42.78;;;25.17;;
35909;SDS011;22004;49.120;-0.200;2024-01-10T21:09:34;39.10;;;22.15;;
35909;SDS011;22004;49.120;-0.200;2024-01-10T21:12:03;39.50;;;23.00;;
35909;SDS011;22004;49.120;-0.200;2024-01-10T21:14:29;38.22;;;22.33;;
35909;SDS011;22004;49.120;-0.200;2024-01-10T21:16:55;42.53;;;23.48;;
35909;SDS011;22004;49.120;-0.200;2024-01-10T21:19:20;36.53;;;22.25;;
35909;SDS011;22004;49.120;-0.200;2024-01-10T21:21:46;36.20;;;22.48;;
35909;SDS011;22004;49.120;-0.200;2024-01-10T21:24:12;38.40;;;22.15;;
35909;SDS011;22004;49.120;-0.200;2024-01-10T21:26:40;38.05;;;21.70;;
35909;SDS011;22004;49.120;-0.200;2024-01-10T21:29:06;41.63;;;22.50;;
35909;SDS011;22004;49.120;-0.200;2024-01-10T21:31:31;41.13;;;23.25;;
35909;SDS011;22004;49.120;-0.200;2024-01-10T21:33:56;39.42;;;22.88;;
35909;SDS011;22004;49.120;-0.200;2024-01-10T21:36:22;36.03;;;21.50;;
35909;SDS011;22004;49.120;-0.200;2024-01-10T21:38:47;38.63;;;22.23;;
35909;SDS011;22004;49.120;-0.200;2024-01-10T21:41:13;38.45;;;22.02;;
35909;SDS011;22004;49.120;-0.200;2024-01-10T21:43:39;36.00;;;20.80;;
35909;SDS011;22004;49.120;-0.200;2024-01-10T21:46:04;35.03;;;21.63;;
35909;SDS011;22004;49.120;-0.200;2024-01-10T21:48:30;41.25;;;21.65;;
35909;SDS011;22004;49.120;-0.200;2024-01-10T21:50:55;38.80;;;23.10;;
35909;SDS011;22004;49.120;-0.200;2024-01-10T21:53:20;38.60;;;21.77;;
35909;SDS011;22004;49.120;-0.200;2024-01-10T21:55:45;37.33;;;21.15;;
35909;SDS011;22004;49.120;-0.200;2024-01-10T21:58:14;37.80;;;21.45;;
35909;SDS011;22004;49.120;-0.200;2024-01-10T22:00:40;38.40;;;21.13;;
35909;SDS011;22004;49.120;-0.200;2024-01-10T22:03:05;38.38;;;21.17;;
35909;SDS011;22004;49.120;-0.200;2024-01-10T22:05:31;39.30;;;22.73;;
35909;SDS011;22004;49.120;-0.200;2024-01-10T22:07:56;39.63;;;22.90;;
35909;SDS011;22004;49.120;-0.200;2024-01-10T22:10:21;40.75;;;23.05;;
35909;SDS011;22004;49.120;-0.200;2024-01-10T22:12:47;41.60;;;23.27;;
35909;SDS011;22004;49.120;-0.200;2024-01-10T22:15:12;40.38;;;22.98;;
35909;SDS011;22004;49.120;-0.200;2024-01-10T22:17:38;40.53;;;22.75;;
35909;SDS011;22004;49.120;-0.200;2024-01-10T22:20:03;42.38;;;23.30;;
35909;SDS011;22004;49.120;-0.200;2024-01-10T22:22:29;40.30;;;24.02;;
35909;SDS011;22004;49.120;-0.200;2024-01-10T22:24:54;40.80;;;23.02;;
35909;SDS011;22004;49.120;-0.200;2024-01-10T22:27:19;40.38;;;23.08;;
35909;SDS011;22004;49.120;-0.200;2024-01-10T22:29:45;40.50;;;22.92;;
35909;SDS011;22004;49.120;-0.200;2024-01-10T22:32:11;39.55;;;23.83;;
35909;SDS011;22004;49.120;-0.200;2024-01-10T22:34:36;43.60;;;23.95;;
35909;SDS011;22004;49.120;-0.200;2024-01-10T22:37:02;39.70;;;22.25;;
35909;SDS011;22004;49.120;-0.200;2024-01-10T22:39:27;36.00;;;21.42;;
35909;SDS011;22004;49.120;-0.200;2024-01-10T22:41:52;39.33;;;22.48;;
35909;SDS011;22004;49.120;-0.200;2024-01-10T22:44:20;40.45;;;23.10;;
35909;SDS011;22004;49.120;-0.200;2024-01-10T22:46:48;41.30;;;23.73;;
35909;SDS011;22004;49.120;-0.200;2024-01-10T22:49:14;35.92;;;21.30;;
35909;SDS011;22004;49.120;-0.200;2024-01-10T22:51:39;37.03;;;21.58;;
35909;SDS011;22004;49.120;-0.200;2024-01-10T22:54:05;41.25;;;21.58;;
35909;SDS011;22004;49.120;-0.200;2024-01-10T22:56:31;36.05;;;21.15;;
35909;SDS011;22004;49.120;-0.200;2024-01-10T22:58:56;39.47;;;21.90;;
35909;SDS011;22004;49.120;-0.200;2024-01-10T23:01:22;34.45;;;20.95;;
35909;SDS011;22004;49.120;-0.200;2024-01-10T23:03:50;36.88;;;21.70;;
35909;SDS011;22004;49.120;-0.200;2024-01-10T23:06:17;38.30;;;21.17;;
35909;SDS011;22004;49.120;-0.200;2024-01-10T23:08:43;38.08;;;20.65;;
35909;SDS011;22004;49.120;-0.200;2024-01-10T23:11:09;37.42;;;20.55;;
35909;SDS011;22004;49.120;-0.200;2024-01-10T23:13:34;34.63;;;20.13;;
35909;SDS011;22004;49.120;-0.200;2024-01-10T23:16:01;34.08;;;20.33;;
35909;SDS011;22004;49.120;-0.200;2024-01-10T23:18:26;34.38;;;19.92;;
35909;SDS011;22004;49.120;-0.200;2024-01-10T23:20:52;35.78;;;19.92;;
35909;SDS011;22004;49.120;-0.200;2024-01-10T23:23:17;33.85;;;20.35;;
35909;SDS011;22004;49.120;-0.200;2024-01-10T23:25:43;33.25;;;18.63;;
35909;SDS011;22004;49.120;-0.200;2024-01-10T23:28:08;31.35;;;19.05;;
35909;SDS011;22004;49.120;-0.200;2024-01-10T23:30:33;35.80;;;19.85;;
35909;SDS011;22004;49.120;-0.200;2024-01-10T23:32:59;34.05;;;19.50;;
35909;SDS011;22004;49.120;-0.200;2024-01-10T23:35:24;37.40;;;21.20;;
35909;SDS011;22004;49.120;-0.200;2024-01-10T23:37:55;32.60;;;18.52;;
35909;SDS011;22004;49.120;-0.200;2024-01-10T23:40:30;32.78;;;18.98;;
35909;SDS011;22004;49.120;-0.200;2024-01-10T23:42:58;33.60;;;18.35;;
35909;SDS011;22004;49.120;-0.200;2024-01-10T23:45:23;39.25;;;20.35;;
35909;SDS011;22004;49.120;-0.200;2024-01-10T23:47:49;35.45;;;19.35;;
35909;SDS011;22004;49.120;-0.200;2024-01-10T23:50:14;35.17;;;19.33;;
35909;SDS011;22004;49.120;-0.200;2024-01-10T23:52:40;38.08;;;20.52;;
35909;SDS011;22004;49.120;-0.200;2024-01-10T23:55:05;34.78;;;19.60;;
35909;SDS011;22004;49.120;-0.200;2024-01-10T23:57:33;38.47;;;20.30;;
35909;SDS011;22004;49.120;-0.200;2024-01-10T23:59:59;40.50;;;20.50;;
